Flight Track Log - Related Links

Times and Time Zones

All times are in EDT time to prevent confusion due to time zone crossing. See the BJS339 flight status page for this flight to view local times or setup timezone preferences in your user account.

Time Position Orientation Groundspeed Altitude Reporting Facility
EDT Latitude Longitude Course Direction KTS MPH feet Rate Location/Type
Thu 02:31:39 PM 42.3667 -70.9333 71° East 202 232 2,200  Level KA90
Thu 02:32:39 PM 42.3833 -70.8667 71° East 206 237 4,500 1,540 Climbing KA90
Thu 02:33:32 PM 42.3894 -70.8072 82° East 208 239 5,100 1,211 Climbing Boston Center
Thu 02:34:33 PM 42.3597 -70.7300 117° Southeast 239 275 6,800 1,805 Climbing Boston Center
Thu 02:35:35 PM 42.2758 -70.7539 192° South 274 315 8,800 1,854 Climbing Boston Center
Thu 02:36:36 PM 42.2497 -70.8567 251° West 279 321 10,600 1,707 Climbing Boston Center
Thu 02:37:38 PM 42.2308 -70.9592 256° West 281 323 12,300 1,645 Climbing Boston Center
Thu 02:38:40 PM 42.2133 -71.0686 258° West 300 345 14,000 1,707 Climbing Boston Center
Thu 02:39:41 PM 42.1922 -71.1986 258° West 327 376 15,800 1,707 Climbing Boston Center
Thu 02:40:43 PM 42.1722 -71.3219 258° West 336 387 17,500 1,707 Climbing Boston Center
Thu 02:41:44 PM 42.1533 -71.4392 258° West 344 396 19,300 1,659 Climbing Boston Center
Thu 02:42:46 PM 42.1186 -71.5575 248° West 344 396 20,900 1,659 Climbing Boston Center
Thu 02:43:47 PM 42.0742 -71.6706 242° Southwest 344 396 22,700 1,317 Climbing Boston Center
Thu 02:44:49 PM 42.0319 -71.7869 244° Southwest 347 399 23,600 1,210 Climbing Boston Center
Thu 02:45:51 PM 41.9719 -71.9256 240° Southwest 357 411 25,200 1,268 Climbing Boston Center
Thu 02:46:52 PM 41.9233 -72.0439 241° Southwest 360 414 26,200 1,033 Climbing Boston Center
Thu 02:47:53 PM 41.8753 -72.1617 241° Southwest 360 414 27,300 878 Climbing Boston Center
Thu 02:48:55 PM 41.8258 -72.2825 241° Southwest 366 421 28,000 1,024 Climbing Boston Center
Thu 02:49:56 PM 41.7756 -72.4033 241° Southwest 368 423 29,400 1,268 Climbing Boston Center
Thu 02:50:58 PM 41.7244 -72.5278 241° Southwest 377 434 30,600 1,161 Climbing Boston Center
Thu 02:52:00 PM 41.6722 -72.6533 241° Southwest 385 443 31,800 683 Climbing Boston Center
Thu 02:53:01 PM 41.6186 -72.7819 241° Southwest 394 453 32,000 98 Climbing Boston Center
Thu 02:54:03 PM 41.5628 -72.9156 241° Southwest 406 467 32,000  Level Boston Center
Thu 02:55:04 PM 41.5017 -73.0625 241° Southwest 412 474 32,000  Level Boston Center
Thu 02:56:06 PM 41.4450 -73.1961 241° Southwest 413 475 32,000  Level Boston Center
Thu 02:57:08 PM 41.3894 -73.3278 241° Southwest 414 476 32,000  Level Boston Center
Thu 02:58:09 PM 41.3200 -73.4889 240° Southwest 414 476 32,000  Level Boston Center
Thu 03:00:12 PM 41.1872 -73.7367 235° Southwest 415 478 32,000  Level Boston Center
Thu 03:01:14 PM 41.1167 -73.8592 233° Southwest 417 480 32,000  Level Boston Center
Thu 03:02:12 PM 41.0408 -73.9869 232° Southwest 430 495 32,000  Level New York Center
Thu 03:03:13 PM 40.9708 -74.1075 232° Southwest 430 495 32,000  Level New York Center
Thu 03:04:11 PM 40.9031 -74.2139 230° Southwest 430 495 32,000  Level New York Center
Thu 03:05:12 PM 40.8331 -74.3308 232° Southwest 430 495 32,000 -885 Level New York Center
Thu 03:06:13 PM 40.7561 -74.4556 231° Southwest 430 495 30,200 -2,017 Descending New York Center
Thu 03:07:11 PM 40.6836 -74.5750 231° Southwest 430 495 28,000 -1,563 Descending New York Center
Thu 03:08:12 PM 40.6131 -74.6939 232° Southwest 430 495 27,100 -885 Descending New York Center
Thu 03:09:13 PM 40.5364 -74.8097 229° Southwest 430 495 26,200 -857 Descending New York Center
Thu 03:10:11 PM 40.4594 -74.9197 227° Southwest 419 482 25,400 -908 Descending New York Center
Thu 03:11:12 PM 40.3850 -75.0217 226° Southwest 402 463 24,400 -1,033 Descending New York Center
Thu 03:12:13 PM 40.3169 -75.1181 227° Southwest 387 445 23,300 -1,100 Descending New York Center
Thu 03:13:12 PM 40.2689 -75.2322 241° Southwest 376 433 22,200 -1,109 Descending New York Center
Thu 03:14:12 PM 40.2536 -75.3561 261° West 347 399 21,100 -1,100 Descending New York Center
Thu 03:15:12 PM 40.1775 -75.4356 219° Southwest 338 389 20,000 -1,050 Descending New York Center
Thu 03:16:12 PM 40.0825 -75.5186 214° Southwest 355 409 19,000 -500 Descending New York Center
Thu 03:17:12 PM 40.0003 -75.5917 214° Southwest 368 423 19,000 -248 Level New York Center
Thu 03:18:13 PM 39.9200 -75.6700 217° Southwest 368 423 18,500 -958 Descending New York Center
Thu 03:19:11 PM 39.8636 -75.7742 235° Southwest 362 417 17,100 -1,289 Descending New York Center
Thu 03:20:42 PM 39.7833 -75.9333 237° Southwest 339 390 15,300 -1,152 Descending Potomac TRACON
Thu 03:21:42 PM 39.7333 -76.0333 237° Southwest 304 350 14,200 -1,100 Descending Potomac TRACON
Thu 03:22:42 PM 39.6833 -76.1167 232° Southwest 289 333 13,100 -1,100 Descending Potomac TRACON
Thu 03:23:42 PM 39.6500 -76.2000 243° Southwest 275 316 12,000 -1,095 Descending Potomac TRACON
Thu 03:24:48 PM 39.5667 -76.2167 189° South 307 353 10,800 -1,000 Descending Potomac TRACON
Thu 03:25:42 PM 39.5333 -76.1333 117° Southeast 323 372 10,000 -421 Descending Potomac TRACON
Thu 03:26:42 PM 39.5000 -76.0167 110° East 319 367 10,000  Level Potomac TRACON
Thu 03:27:42 PM 39.4667 -75.9167 113° Southeast 315 362 10,000  Level Potomac TRACON
Thu 03:28:48 PM 39.4000 -75.8667 150° Southeast 298 343 10,000 -524 Level Potomac TRACON
Thu 03:29:48 PM 39.3167 -75.9000 197° South 286 329 8,900 -1,513 Descending Potomac TRACON
Thu 03:30:43 PM 39.2500 -75.9000 180° South 278 320 7,100 -1,826 Descending Potomac TRACON
Thu 03:31:43 PM 39.1833 -75.9167 191° South 265 305 5,400 -1,587 Descending Potomac TRACON
Thu 03:32:44 PM 39.1000 -75.9333 189° South 259 298 3,900 -1,488 Descending Potomac TRACON
Thu 03:33:44 PM 39.0333 -75.9333 180° South 236 272 2,400 -942 Descending Potomac TRACON
Thu 03:34:45 PM 38.9833 -75.9500 195° South 228 262 2,000 -209 Descending Potomac TRACON
Thu 03:35:39 PM 38.9333 -75.9667 195° South 206 237 2,000 -111 Level Potomac TRACON
Thu 03:36:33 PM 38.8833 -76.0000 207° Southwest 193 222 1,800 -600 Descending Potomac TRACON
Thu 03:37:39 PM 38.8500 -76.0333 218° Southwest 159 183 800 -909 Descending Potomac TRACON
Thu 03:40:00 PM 38.8000 -76.0667 204° Southwest  Level FlightAware Approximate
Thu 03:47:00 PM 38.8042 -76.0690 336° Northwest  Level Estimated
Thu 03:48:00 PM 38.8000 -76.0667 204° Southwest  Level FlightAware Approximate
Thu 03:49:00 PM 38.8042 -76.0690 336° Northwest  Level Estimated
Thu 03:50:00 PM 38.8000 -76.0667 204° Southwest  Level FlightAware Approximate
Thu 03:51:00 PM 38.8042 -76.0690 336° Northwest  Level Estimated
Thu 03:52:00 PM 38.8000 -76.0667 204° Southwest  Level FlightAware Approximate
Thu 03:53:00 PM 38.8042 -76.0690 336° Northwest  Level Estimated
Thu 03:54:00 PM 38.8000 -76.0667 204° Southwest  Level FlightAware Approximate

Login

Don't have an account? Register now (free) for customized features, flight alerts, and more!